sensor_id;sensor_type;location;lat;lon;timestamp;P1;durP1;ratioP1;P2;durP2;ratioP2
66585;SDS011;53444;45.822;16.092;2023-02-03T00:00:24;10.15;;;4.60;;
66585;SDS011;53444;45.822;16.092;2023-02-03T00:02:52;8.50;;;4.22;;
66585;SDS011;53444;45.822;16.092;2023-02-03T00:05:19;6.95;;;3.22;;
66585;SDS011;53444;45.822;16.092;2023-02-03T00:07:46;9.88;;;4.63;;
66585;SDS011;53444;45.822;16.092;2023-02-03T00:12:45;9.10;;;4.25;;
66585;SDS011;53444;45.822;16.092;2023-02-03T00:15:12;9.90;;;5.05;;
66585;SDS011;53444;45.822;16.092;2023-02-03T00:17:39;9.60;;;4.75;;
66585;SDS011;53444;45.822;16.092;2023-02-03T00:20:06;7.65;;;4.55;;
66585;SDS011;53444;45.822;16.092;2023-02-03T00:22:33;12.97;;;5.50;;
66585;SDS011;53444;45.822;16.092;2023-02-03T00:24:59;8.73;;;4.70;;
66585;SDS011;53444;45.822;16.092;2023-02-03T00:27:27;10.15;;;4.75;;
66585;SDS011;53444;45.822;16.092;2023-02-03T00:29:54;13.38;;;5.85;;
66585;SDS011;53444;45.822;16.092;2023-02-03T00:32:21;13.88;;;5.97;;
66585;SDS011;53444;45.822;16.092;2023-02-03T00:34:47;16.60;;;5.43;;
66585;SDS011;53444;45.822;16.092;2023-02-03T00:37:14;11.82;;;4.32;;
66585;SDS011;53444;45.822;16.092;2023-02-03T00:39:41;6.85;;;3.45;;
66585;SDS011;53444;45.822;16.092;2023-02-03T00:42:08;7.30;;;3.17;;
66585;SDS011;53444;45.822;16.092;2023-02-03T00:44:37;8.90;;;3.38;;
66585;SDS011;53444;45.822;16.092;2023-02-03T00:47:04;4.67;;;2.80;;
66585;SDS011;53444;45.822;16.092;2023-02-03T00:49:30;3.65;;;2.25;;
66585;SDS011;53444;45.822;16.092;2023-02-03T00:51:57;6.13;;;2.50;;
66585;SDS011;53444;45.822;16.092;2023-02-03T00:54:24;5.28;;;2.85;;
66585;SDS011;53444;45.822;16.092;2023-02-03T00:56:50;3.70;;;2.30;;
66585;SDS011;53444;45.822;16.092;2023-02-03T00:59:17;5.00;;;2.30;;
66585;SDS011;53444;45.822;16.092;2023-02-03T01:01:45;4.80;;;1.85;;
66585;SDS011;53444;45.822;16.092;2023-02-03T01:04:13;3.47;;;1.85;;
66585;SDS011;53444;45.822;16.092;2023-02-03T01:06:40;7.95;;;2.20;;
66585;SDS011;53444;45.822;16.092;2023-02-03T01:09:08;3.53;;;1.75;;
66585;SDS011;53444;45.822;16.092;2023-02-03T01:11:35;3.23;;;1.80;;
66585;SDS011;53444;45.822;16.092;2023-02-03T01:14:02;7.53;;;3.38;;
66585;SDS011;53444;45.822;16.092;2023-02-03T01:16:29;6.35;;;3.10;;
66585;SDS011;53444;45.822;16.092;2023-02-03T01:19:02;12.43;;;5.25;;
66585;SDS011;53444;45.822;16.092;2023-02-03T01:21:31;8.05;;;3.45;;
66585;SDS011;53444;45.822;16.092;2023-02-03T01:23:58;6.37;;;2.53;;
66585;SDS011;53444;45.822;16.092;2023-02-03T01:26:25;3.50;;;1.55;;
66585;SDS011;53444;45.822;16.092;2023-02-03T01:28:52;2.70;;;1.67;;
66585;SDS011;53444;45.822;16.092;2023-02-03T01:31:27;3.78;;;2.05;;
66585;SDS011;53444;45.822;16.092;2023-02-03T01:33:56;5.53;;;2.05;;
66585;SDS011;53444;45.822;16.092;2023-02-03T01:36:25;4.70;;;2.00;;
66585;SDS011;53444;45.822;16.092;2023-02-03T01:38:54;3.65;;;1.92;;
66585;SDS011;53444;45.822;16.092;2023-02-03T01:41:21;5.10;;;2.60;;
66585;SDS011;53444;45.822;16.092;2023-02-03T01:43:50;3.53;;;1.70;;
66585;SDS011;53444;45.822;16.092;2023-02-03T01:46:23;5.95;;;2.03;;
66585;SDS011;53444;45.822;16.092;2023-02-03T01:48:54;4.37;;;1.97;;
66585;SDS011;53444;45.822;16.092;2023-02-03T01:51:22;5.35;;;2.40;;
66585;SDS011;53444;45.822;16.092;2023-02-03T01:53:51;6.47;;;2.40;;
66585;SDS011;53444;45.822;16.092;2023-02-03T01:56:19;4.55;;;2.20;;
66585;SDS011;53444;45.822;16.092;2023-02-03T01:58:47;4.30;;;2.33;;
66585;SDS011;53444;45.822;16.092;2023-02-03T02:01:17;5.53;;;2.70;;
66585;SDS011;53444;45.822;16.092;2023-02-03T02:03:44;6.03;;;2.67;;
66585;SDS011;53444;45.822;16.092;2023-02-03T02:06:15;5.88;;;2.85;;
66585;SDS011;53444;45.822;16.092;2023-02-03T02:08:43;9.80;;;4.07;;
66585;SDS011;53444;45.822;16.092;2023-02-03T02:11:15;10.40;;;4.22;;
66585;SDS011;53444;45.822;16.092;2023-02-03T02:13:42;9.47;;;3.60;;
66585;SDS011;53444;45.822;16.092;2023-02-03T02:16:11;11.75;;;5.05;;
66585;SDS011;53444;45.822;16.092;2023-02-03T02:18:58;8.93;;;3.40;;
66585;SDS011;53444;45.822;16.092;2023-02-03T02:21:50;7.07;;;2.88;;
66585;SDS011;53444;45.822;16.092;2023-02-03T02:24:51;6.65;;;2.75;;
66585;SDS011;53444;45.822;16.092;2023-02-03T02:27:38;7.37;;;2.77;;
66585;SDS011;53444;45.822;16.092;2023-02-03T02:30:35;5.15;;;2.78;;
66585;SDS011;53444;45.822;16.092;2023-02-03T02:33:13;5.95;;;2.78;;
66585;SDS011;53444;45.822;16.092;2023-02-03T02:35:53;7.10;;;2.95;;
66585;SDS011;53444;45.822;16.092;2023-02-03T02:38:30;6.68;;;2.80;;
66585;SDS011;53444;45.822;16.092;2023-02-03T02:41:08;8.40;;;3.23;;
66585;SDS011;53444;45.822;16.092;2023-02-03T02:43:40;6.45;;;3.55;;
66585;SDS011;53444;45.822;16.092;2023-02-03T02:46:09;4.80;;;2.78;;
66585;SDS011;53444;45.822;16.092;2023-02-03T02:48:40;7.10;;;3.70;;
66585;SDS011;53444;45.822;16.092;2023-02-03T02:51:11;5.80;;;3.58;;
66585;SDS011;53444;45.822;16.092;2023-02-03T02:53:41;6.50;;;3.50;;
66585;SDS011;53444;45.822;16.092;2023-02-03T02:56:12;6.00;;;3.40;;
66585;SDS011;53444;45.822;16.092;2023-02-03T02:58:40;6.68;;;3.47;;
66585;SDS011;53444;45.822;16.092;2023-02-03T03:01:10;7.70;;;3.60;;
66585;SDS011;53444;45.822;16.092;2023-02-03T03:03:43;7.95;;;3.80;;
66585;SDS011;53444;45.822;16.092;2023-02-03T03:06:12;9.33;;;4.00;;
66585;SDS011;53444;45.822;16.092;2023-02-03T03:08:43;8.45;;;4.00;;
66585;SDS011;53444;45.822;16.092;2023-02-03T03:11:13;9.63;;;4.18;;
66585;SDS011;53444;45.822;16.092;2023-02-03T03:13:41;7.68;;;4.10;;
66585;SDS011;53444;45.822;16.092;2023-02-03T03:16:10;7.60;;;3.72;;
66585;SDS011;53444;45.822;16.092;2023-02-03T03:18:41;11.73;;;4.70;;
66585;SDS011;53444;45.822;16.092;2023-02-03T03:21:12;8.27;;;4.20;;
66585;SDS011;53444;45.822;16.092;2023-02-03T03:23:41;9.63;;;3.88;;
66585;SDS011;53444;45.822;16.092;2023-02-03T03:26:13;11.48;;;4.95;;
66585;SDS011;53444;45.822;16.092;2023-02-03T03:28:45;17.80;;;7.38;;
66585;SDS011;53444;45.822;16.092;2023-02-03T03:31:15;15.47;;;6.43;;
66585;SDS011;53444;45.822;16.092;2023-02-03T03:33:44;15.40;;;6.22;;
66585;SDS011;53444;45.822;16.092;2023-02-03T03:36:14;15.05;;;5.55;;
66585;SDS011;53444;45.822;16.092;2023-02-03T03:38:53;8.68;;;4.75;;
66585;SDS011;53444;45.822;16.092;2023-02-03T03:41:24;8.80;;;4.53;;
66585;SDS011;53444;45.822;16.092;2023-02-03T03:43:58;9.23;;;5.37;;
66585;SDS011;53444;45.822;16.092;2023-02-03T03:46:29;11.45;;;4.63;;
66585;SDS011;53444;45.822;16.092;2023-02-03T03:49:03;8.82;;;4.10;;
66585;SDS011;53444;45.822;16.092;2023-02-03T03:51:33;9.05;;;4.05;;
66585;SDS011;53444;45.822;16.092;2023-02-03T03:54:04;10.20;;;4.90;;
66585;SDS011;53444;45.822;16.092;2023-02-03T03:56:35;10.47;;;4.87;;
66585;SDS011;53444;45.822;16.092;2023-02-03T03:59:09;14.75;;;6.60;;
66585;SDS011;53444;45.822;16.092;2023-02-03T04:01:40;12.02;;;6.07;;
66585;SDS011;53444;45.822;16.092;2023-02-03T04:04:09;16.38;;;6.75;;
66585;SDS011;53444;45.822;16.092;2023-02-03T04:06:37;13.95;;;6.13;;
66585;SDS011;53444;45.822;16.092;2023-02-03T04:09:04;13.77;;;6.17;;
66585;SDS011;53444;45.822;16.092;2023-02-03T04:11:31;14.27;;;5.90;;
66585;SDS011;53444;45.822;16.092;2023-02-03T04:14:15;13.70;;;6.22;;
66585;SDS011;53444;45.822;16.092;2023-02-03T04:16:42;14.18;;;6.57;;
66585;SDS011;53444;45.822;16.092;2023-02-03T04:19:10;12.80;;;6.88;;
66585;SDS011;53444;45.822;16.092;2023-02-03T04:21:37;14.73;;;6.53;;
66585;SDS011;53444;45.822;16.092;2023-02-03T04:24:04;13.68;;;6.32;;
66585;SDS011;53444;45.822;16.092;2023-02-03T04:26:32;8.93;;;4.72;;
66585;SDS011;53444;45.822;16.092;2023-02-03T04:28:59;11.32;;;4.90;;
66585;SDS011;53444;45.822;16.092;2023-02-03T04:31:27;11.80;;;5.50;;
66585;SDS011;53444;45.822;16.092;2023-02-03T04:33:54;9.67;;;4.90;;
66585;SDS011;53444;45.822;16.092;2023-02-03T04:36:25;9.40;;;4.30;;
66585;SDS011;53444;45.822;16.092;2023-02-03T04:38:52;9.45;;;4.05;;
66585;SDS011;53444;45.822;16.092;2023-02-03T04:41:19;10.80;;;4.60;;
66585;SDS011;53444;45.822;16.092;2023-02-03T04:43:47;11.43;;;5.10;;
66585;SDS011;53444;45.822;16.092;2023-02-03T04:46:14;9.30;;;4.60;;
66585;SDS011;53444;45.822;16.092;2023-02-03T04:48:43;8.65;;;4.10;;
66585;SDS011;53444;45.822;16.092;2023-02-03T04:51:10;11.68;;;5.30;;
66585;SDS011;53444;45.822;16.092;2023-02-03T04:53:38;11.23;;;5.20;;
66585;SDS011;53444;45.822;16.092;2023-02-03T04:56:04;10.88;;;5.35;;
66585;SDS011;53444;45.822;16.092;2023-02-03T04:58:31;8.93;;;4.70;;
66585;SDS011;53444;45.822;16.092;2023-02-03T05:01:04;12.70;;;5.22;;
66585;SDS011;53444;45.822;16.092;2023-02-03T05:03:31;11.10;;;4.90;;
66585;SDS011;53444;45.822;16.092;2023-02-03T05:05:58;10.15;;;4.53;;
66585;SDS011;53444;45.822;16.092;2023-02-03T05:08:24;9.55;;;4.57;;
66585;SDS011;53444;45.822;16.092;2023-02-03T05:10:52;13.20;;;5.23;;
66585;SDS011;53444;45.822;16.092;2023-02-03T05:13:19;11.35;;;5.53;;
66585;SDS011;53444;45.822;16.092;2023-02-03T05:15:45;13.07;;;5.97;;
66585;SDS011;53444;45.822;16.092;2023-02-03T05:18:12;10.18;;;5.88;;
66585;SDS011;53444;45.822;16.092;2023-02-03T05:20:38;15.88;;;7.05;;
66585;SDS011;53444;45.822;16.092;2023-02-03T05:23:05;11.87;;;6.27;;
66585;SDS011;53444;45.822;16.092;2023-02-03T05:25:31;14.02;;;6.57;;
66585;SDS011;53444;45.822;16.092;2023-02-03T05:27:59;15.20;;;6.85;;
66585;SDS011;53444;45.822;16.092;2023-02-03T05:30:26;10.77;;;6.07;;
66585;SDS011;53444;45.822;16.092;2023-02-03T05:32:52;12.10;;;6.25;;
66585;SDS011;53444;45.822;16.092;2023-02-03T05:35:19;16.43;;;6.73;;
66585;SDS011;53444;45.822;16.092;2023-02-03T05:37:45;16.73;;;7.57;;
66585;SDS011;53444;45.822;16.092;2023-02-03T05:40:13;14.00;;;7.43;;
66585;SDS011;53444;45.822;16.092;2023-02-03T05:42:57;19.55;;;9.85;;
66585;SDS011;53444;45.822;16.092;2023-02-03T05:45:25;31.95;;;12.52;;
66585;SDS011;53444;45.822;16.092;2023-02-03T05:47:51;31.97;;;13.73;;
66585;SDS011;53444;45.822;16.092;2023-02-03T05:50:18;27.02;;;12.02;;
66585;SDS011;53444;45.822;16.092;2023-02-03T05:52:47;23.83;;;11.88;;
66585;SDS011;53444;45.822;16.092;2023-02-03T05:55:13;25.63;;;13.02;;
66585;SDS011;53444;45.822;16.092;2023-02-03T05:57:40;27.58;;;12.48;;
66585;SDS011;53444;45.822;16.092;2023-02-03T06:00:08;31.00;;;13.70;;
66585;SDS011;53444;45.822;16.092;2023-02-03T06:02:37;27.83;;;12.40;;
66585;SDS011;53444;45.822;16.092;2023-02-03T06:05:06;25.15;;;12.27;;
66585;SDS011;53444;45.822;16.092;2023-02-03T06:07:36;28.17;;;12.90;;
66585;SDS011;53444;45.822;16.092;2023-02-03T06:10:03;22.75;;;11.73;;
66585;SDS011;53444;45.822;16.092;2023-02-03T06:12:30;23.70;;;11.23;;
66585;SDS011;53444;45.822;16.092;2023-02-03T06:14:56;24.13;;;9.95;;
66585;SDS011;53444;45.822;16.092;2023-02-03T06:17:23;25.23;;;11.05;;
66585;SDS011;53444;45.822;16.092;2023-02-03T06:19:51;22.27;;;10.02;;
66585;SDS011;53444;45.822;16.092;2023-02-03T06:22:17;19.23;;;9.20;;
66585;SDS011;53444;45.822;16.092;2023-02-03T06:24:44;18.70;;;9.00;;
66585;SDS011;53444;45.822;16.092;2023-02-03T06:27:12;19.08;;;8.60;;
66585;SDS011;53444;45.822;16.092;2023-02-03T06:29:39;16.13;;;9.57;;
66585;SDS011;53444;45.822;16.092;2023-02-03T06:32:06;15.57;;;8.45;;
66585;SDS011;53444;45.822;16.092;2023-02-03T06:34:33;18.70;;;8.38;;
66585;SDS011;53444;45.822;16.092;2023-02-03T06:37:01;16.67;;;8.00;;
66585;SDS011;53444;45.822;16.092;2023-02-03T06:39:27;14.45;;;7.70;;
66585;SDS011;53444;45.822;16.092;2023-02-03T06:41:54;17.05;;;8.77;;
66585;SDS011;53444;45.822;16.092;2023-02-03T06:44:21;17.90;;;8.65;;
66585;SDS011;53444;45.822;16.092;2023-02-03T06:46:47;19.60;;;8.93;;
66585;SDS011;53444;45.822;16.092;2023-02-03T06:49:15;19.27;;;8.87;;
66585;SDS011;53444;45.822;16.092;2023-02-03T06:51:42;22.63;;;8.90;;
66585;SDS011;53444;45.822;16.092;2023-02-03T06:54:10;21.30;;;10.73;;
66585;SDS011;53444;45.822;16.092;2023-02-03T06:56:38;23.52;;;10.57;;
66585;SDS011;53444;45.822;16.092;2023-02-03T06:59:05;22.38;;;11.45;;
66585;SDS011;53444;45.822;16.092;2023-02-03T07:01:38;24.13;;;10.53;;
66585;SDS011;53444;45.822;16.092;2023-02-03T07:04:04;24.45;;;11.30;;
66585;SDS011;53444;45.822;16.092;2023-02-03T07:06:31;23.20;;;10.38;;
66585;SDS011;53444;45.822;16.092;2023-02-03T07:09:02;23.77;;;12.77;;
66585;SDS011;53444;45.822;16.092;2023-02-03T07:11:31;26.90;;;12.30;;
66585;SDS011;53444;45.822;16.092;2023-02-03T07:13:57;29.20;;;14.67;;
66585;SDS011;53444;45.822;16.092;2023-02-03T07:16:24;31.88;;;16.80;;
66585;SDS011;53444;45.822;16.092;2023-02-03T07:18:53;26.70;;;14.52;;
66585;SDS011;53444;45.822;16.092;2023-02-03T07:21:20;29.15;;;14.50;;
66585;SDS011;53444;45.822;16.092;2023-02-03T07:23:47;29.20;;;15.40;;
66585;SDS011;53444;45.822;16.092;2023-02-03T07:26:15;29.30;;;15.20;;
66585;SDS011;53444;45.822;16.092;2023-02-03T07:28:44;35.22;;;17.05;;
66585;SDS011;53444;45.822;16.092;2023-02-03T07:31:10;47.50;;;24.40;;
66585;SDS011;53444;45.822;16.092;2023-02-03T07:33:37;48.53;;;24.80;;
66585;SDS011;53444;45.822;16.092;2023-02-03T07:36:04;49.08;;;26.58;;
66585;SDS011;53444;45.822;16.092;2023-02-03T07:38:32;50.03;;;25.47;;
66585;SDS011;53444;45.822;16.092;2023-02-03T07:40:58;74.47;;;28.23;;
66585;SDS011;53444;45.822;16.092;2023-02-03T07:43:25;57.42;;;25.70;;
66585;SDS011;53444;45.822;16.092;2023-02-03T07:45:53;55.95;;;25.27;;
66585;SDS011;53444;45.822;16.092;2023-02-03T07:48:19;45.67;;;22.10;;
66585;SDS011;53444;45.822;16.092;2023-02-03T07:50:46;50.00;;;22.70;;
66585;SDS011;53444;45.822;16.092;2023-02-03T07:53:14;45.47;;;19.63;;
66585;SDS011;53444;45.822;16.092;2023-02-03T07:55:41;38.63;;;18.65;;
66585;SDS011;53444;45.822;16.092;2023-02-03T07:58:07;29.60;;;17.45;;
66585;SDS011;53444;45.822;16.092;2023-02-03T08:00:34;45.42;;;21.85;;
66585;SDS011;53444;45.822;16.092;2023-02-03T08:03:02;42.00;;;20.63;;
66585;SDS011;53444;45.822;16.092;2023-02-03T08:05:29;37.22;;;18.65;;
66585;SDS011;53444;45.822;16.092;2023-02-03T08:07:56;35.60;;;18.45;;
66585;SDS011;53444;45.822;16.092;2023-02-03T08:10:23;30.73;;;15.18;;
66585;SDS011;53444;45.822;16.092;2023-02-03T08:12:51;28.63;;;15.30;;
66585;SDS011;53444;45.822;16.092;2023-02-03T08:15:18;29.70;;;13.60;;
66585;SDS011;53444;45.822;16.092;2023-02-03T08:17:45;21.13;;;11.48;;
66585;SDS011;53444;45.822;16.092;2023-02-03T08:20:15;24.17;;;12.98;;
66585;SDS011;53444;45.822;16.092;2023-02-03T08:22:42;27.50;;;13.90;;
66585;SDS011;53444;45.822;16.092;2023-02-03T08:25:09;19.42;;;10.98;;
66585;SDS011;53444;45.822;16.092;2023-02-03T08:27:36;22.73;;;12.37;;
66585;SDS011;53444;45.822;16.092;2023-02-03T08:30:03;21.98;;;10.40;;
66585;SDS011;53444;45.822;16.092;2023-02-03T08:32:31;14.05;;;6.78;;
66585;SDS011;53444;45.822;16.092;2023-02-03T08:34:58;14.30;;;7.85;;
66585;SDS011;53444;45.822;16.092;2023-02-03T08:37:26;15.45;;;7.30;;
66585;SDS011;53444;45.822;16.092;2023-02-03T08:39:55;10.63;;;5.70;;
66585;SDS011;53444;45.822;16.092;2023-02-03T08:42:22;11.57;;;5.10;;
66585;SDS011;53444;45.822;16.092;2023-02-03T08:44:51;10.00;;;5.68;;
66585;SDS011;53444;45.822;16.092;2023-02-03T08:47:17;11.38;;;6.78;;
66585;SDS011;53444;45.822;16.092;2023-02-03T08:49:44;9.82;;;5.75;;
66585;SDS011;53444;45.822;16.092;2023-02-03T08:52:11;6.30;;;4.27;;
66585;SDS011;53444;45.822;16.092;2023-02-03T08:54:39;11.13;;;5.40;;
66585;SDS011;53444;45.822;16.092;2023-02-03T08:57:06;8.80;;;4.88;;
66585;SDS011;53444;45.822;16.092;2023-02-03T08:59:33;11.80;;;4.00;;
66585;SDS011;53444;45.822;16.092;2023-02-03T09:02:07;8.35;;;4.32;;
66585;SDS011;53444;45.822;16.092;2023-02-03T09:04:36;8.67;;;4.93;;
66585;SDS011;53444;45.822;16.092;2023-02-03T09:07:03;9.20;;;4.68;;
66585;SDS011;53444;45.822;16.092;2023-02-03T09:09:29;8.98;;;4.50;;
66585;SDS011;53444;45.822;16.092;2023-02-03T09:11:57;12.55;;;4.70;;
66585;SDS011;53444;45.822;16.092;2023-02-03T09:14:26;7.50;;;3.88;;
66585;SDS011;53444;45.822;16.092;2023-02-03T09:16:53;7.43;;;3.27;;
66585;SDS011;53444;45.822;16.092;2023-02-03T09:19:20;9.10;;;4.57;;
66585;SDS011;53444;45.822;16.092;2023-02-03T09:21:46;9.40;;;5.03;;
66585;SDS011;53444;45.822;16.092;2023-02-03T09:24:13;10.43;;;5.05;;
66585;SDS011;53444;45.822;16.092;2023-02-03T09:26:40;9.93;;;5.07;;
66585;SDS011;53444;45.822;16.092;2023-02-03T09:29:08;9.60;;;4.57;;
66585;SDS011;53444;45.822;16.092;2023-02-03T09:31:34;9.60;;;4.88;;
66585;SDS011;53444;45.822;16.092;2023-02-03T09:34:01;9.05;;;4.90;;
66585;SDS011;53444;45.822;16.092;2023-02-03T09:36:28;9.98;;;5.18;;
66585;SDS011;53444;45.822;16.092;2023-02-03T09:38:55;10.02;;;5.00;;
66585;SDS011;53444;45.822;16.092;2023-02-03T09:41:33;9.40;;;4.27;;
66585;SDS011;53444;45.822;16.092;2023-02-03T09:44:12;9.00;;;5.13;;
66585;SDS011;53444;45.822;16.092;2023-02-03T09:46:47;9.00;;;4.50;;
66585;SDS011;53444;45.822;16.092;2023-02-03T09:49:21;7.25;;;3.80;;
66585;SDS011;53444;45.822;16.092;2023-02-03T09:51:51;6.13;;;2.95;;
66585;SDS011;53444;45.822;16.092;2023-02-03T09:54:22;14.73;;;4.23;;
66585;SDS011;53444;45.822;16.092;2023-02-03T09:56:53;7.28;;;3.50;;
66585;SDS011;53444;45.822;16.092;2023-02-03T09:59:21;8.73;;;4.40;;
66585;SDS011;53444;45.822;16.092;2023-02-03T10:01:49;8.00;;;3.70;;
66585;SDS011;53444;45.822;16.092;2023-02-03T10:04:24;7.82;;;3.53;;
66585;SDS011;53444;45.822;16.092;2023-02-03T10:07:00;6.90;;;3.30;;
66585;SDS011;53444;45.822;16.092;2023-02-03T10:09:38;8.02;;;3.80;;
66585;SDS011;53444;45.822;16.092;2023-02-03T10:15:17;7.78;;;3.17;;
66585;SDS011;53444;45.822;16.092;2023-02-03T10:17:54;10.50;;;4.18;;
66585;SDS011;53444;45.822;16.092;2023-02-03T10:20:24;8.33;;;4.10;;
66585;SDS011;53444;45.822;16.092;2023-02-03T10:22:58;6.18;;;3.45;;
66585;SDS011;53444;45.822;16.092;2023-02-03T10:25:30;9.55;;;3.60;;
66585;SDS011;53444;45.822;16.092;2023-02-03T10:28:02;4.53;;;2.65;;
66585;SDS011;53444;45.822;16.092;2023-02-03T10:30:36;8.13;;;4.22;;
66585;SDS011;53444;45.822;16.092;2023-02-03T10:33:09;10.93;;;5.32;;
66585;SDS011;53444;45.822;16.092;2023-02-03T10:35:38;9.88;;;3.85;;
66585;SDS011;53444;45.822;16.092;2023-02-03T10:38:14;9.32;;;5.07;;
66585;SDS011;53444;45.822;16.092;2023-02-03T10:40:49;7.22;;;3.15;;
66585;SDS011;53444;45.822;16.092;2023-02-03T10:43:16;7.57;;;4.57;;
66585;SDS011;53444;45.822;16.092;2023-02-03T10:46:02;9.53;;;4.40;;
66585;SDS011;53444;45.822;16.092;2023-02-03T10:48:29;10.50;;;4.05;;
66585;SDS011;53444;45.822;16.092;2023-02-03T10:50:55;6.15;;;3.38;;
66585;SDS011;53444;45.822;16.092;2023-02-03T10:53:24;6.50;;;2.92;;
66585;SDS011;53444;45.822;16.092;2023-02-03T10:55:58;4.32;;;2.10;;
66585;SDS011;53444;45.822;16.092;2023-02-03T10:58:28;4.40;;;1.90;;
66585;SDS011;53444;45.822;16.092;2023-02-03T11:01:02;7.82;;;2.72;;
66585;SDS011;53444;45.822;16.092;2023-02-03T11:03:34;5.22;;;1.77;;
66585;SDS011;53444;45.822;16.092;2023-02-03T11:06:02;4.88;;;2.15;;
66585;SDS011;53444;45.822;16.092;2023-02-03T11:08:31;2.65;;;1.65;;
66585;SDS011;53444;45.822;16.092;2023-02-03T11:11:00;5.68;;;2.20;;
66585;SDS011;53444;45.822;16.092;2023-02-03T11:13:28;3.72;;;1.88;;
66585;SDS011;53444;45.822;16.092;2023-02-03T11:15:56;2.67;;;1.27;;
66585;SDS011;53444;45.822;16.092;2023-02-03T11:18:29;3.38;;;1.83;;
66585;SDS011;53444;45.822;16.092;2023-02-03T11:21:10;4.25;;;2.40;;
66585;SDS011;53444;45.822;16.092;2023-02-03T11:23:50;4.10;;;2.10;;
66585;SDS011;53444;45.822;16.092;2023-02-03T11:26:24;3.55;;;1.90;;
66585;SDS011;53444;45.822;16.092;2023-02-03T11:28:53;5.90;;;2.33;;
66585;SDS011;53444;45.822;16.092;2023-02-03T11:31:24;8.23;;;2.50;;
66585;SDS011;53444;45.822;16.092;2023-02-03T11:34:03;4.57;;;2.50;;
66585;SDS011;53444;45.822;16.092;2023-02-03T11:36:32;4.33;;;2.10;;
66585;SDS011;53444;45.822;16.092;2023-02-03T11:39:16;4.65;;;2.00;;
66585;SDS011;53444;45.822;16.092;2023-02-03T11:41:45;5.28;;;2.50;;
66585;SDS011;53444;45.822;16.092;2023-02-03T11:44:17;6.60;;;2.95;;
66585;SDS011;53444;45.822;16.092;2023-02-03T11:46:45;5.88;;;2.75;;
66585;SDS011;53444;45.822;16.092;2023-02-03T11:49:21;7.82;;;3.20;;
66585;SDS011;53444;45.822;16.092;2023-02-03T11:52:05;4.32;;;2.42;;
66585;SDS011;53444;45.822;16.092;2023-02-03T11:54:49;7.32;;;3.30;;
66585;SDS011;53444;45.822;16.092;2023-02-03T11:57:24;5.53;;;2.92;;
66585;SDS011;53444;45.822;16.092;2023-02-03T12:00:02;6.55;;;2.67;;
66585;SDS011;53444;45.822;16.092;2023-02-03T12:02:53;4.65;;;2.38;;
66585;SDS011;53444;45.822;16.092;2023-02-03T12:05:50;5.65;;;2.63;;
66585;SDS011;53444;45.822;16.092;2023-02-03T12:08:27;5.95;;;3.35;;
66585;SDS011;53444;45.822;16.092;2023-02-03T12:11:04;7.38;;;3.33;;
66585;SDS011;53444;45.822;16.092;2023-02-03T12:13:42;4.57;;;2.15;;
66585;SDS011;53444;45.822;16.092;2023-02-03T12:16:25;4.30;;;2.23;;
66585;SDS011;53444;45.822;16.092;2023-02-03T12:19:08;3.10;;;1.77;;
66585;SDS011;53444;45.822;16.092;2023-02-03T12:21:45;3.47;;;1.70;;
66585;SDS011;53444;45.822;16.092;2023-02-03T12:24:21;5.50;;;2.58;;
66585;SDS011;53444;45.822;16.092;2023-02-03T12:26:56;3.83;;;1.90;;
66585;SDS011;53444;45.822;16.092;2023-02-03T12:29:31;4.53;;;2.67;;
66585;SDS011;53444;45.822;16.092;2023-02-03T12:32:05;6.10;;;3.10;;
66585;SDS011;53444;45.822;16.092;2023-02-03T12:34:40;6.68;;;3.38;;
66585;SDS011;53444;45.822;16.092;2023-02-03T12:37:15;3.55;;;2.38;;
66585;SDS011;53444;45.822;16.092;2023-02-03T12:39:50;4.43;;;2.65;;
66585;SDS011;53444;45.822;16.092;2023-02-03T12:42:26;5.53;;;2.50;;
66585;SDS011;53444;45.822;16.092;2023-02-03T12:44:57;4.90;;;2.63;;
66585;SDS011;53444;45.822;16.092;2023-02-03T12:47:28;7.68;;;3.53;;
66585;SDS011;53444;45.822;16.092;2023-02-03T12:50:01;4.75;;;2.60;;
66585;SDS011;53444;45.822;16.092;2023-02-03T12:52:31;6.13;;;2.70;;
66585;SDS011;53444;45.822;16.092;2023-02-03T12:55:06;7.70;;;3.97;;
66585;SDS011;53444;45.822;16.092;2023-02-03T12:57:43;9.85;;;3.90;;
66585;SDS011;53444;45.822;16.092;2023-02-03T13:00:18;7.63;;;4.32;;
66585;SDS011;53444;45.822;16.092;2023-02-03T13:02:54;9.63;;;4.03;;
66585;SDS011;53444;45.822;16.092;2023-02-03T13:05:32;7.15;;;4.10;;
66585;SDS011;53444;45.822;16.092;2023-02-03T13:08:09;10.23;;;3.80;;
66585;SDS011;53444;45.822;16.092;2023-02-03T13:10:41;6.93;;;2.80;;
66585;SDS011;53444;45.822;16.092;2023-02-03T13:13:14;3.97;;;2.47;;
66585;SDS011;53444;45.822;16.092;2023-02-03T13:15:46;7.13;;;2.53;;
66585;SDS011;53444;45.822;16.092;2023-02-03T13:18:18;6.75;;;3.22;;
66585;SDS011;53444;45.822;16.092;2023-02-03T13:20:50;5.75;;;3.42;;
66585;SDS011;53444;45.822;16.092;2023-02-03T13:23:18;7.75;;;4.40;;
66585;SDS011;53444;45.822;16.092;2023-02-03T13:25:49;7.55;;;3.78;;
66585;SDS011;53444;45.822;16.092;2023-02-03T13:28:30;6.43;;;2.90;;
66585;SDS011;53444;45.822;16.092;2023-02-03T13:31:14;9.75;;;4.35;;
66585;SDS011;53444;45.822;16.092;2023-02-03T13:33:55;6.30;;;3.63;;
66585;SDS011;53444;45.822;16.092;2023-02-03T13:36:53;5.32;;;3.17;;
66585;SDS011;53444;45.822;16.092;2023-02-03T13:42:32;7.70;;;4.30;;
66585;SDS011;53444;45.822;16.092;2023-02-03T13:45:08;8.07;;;3.92;;
66585;SDS011;53444;45.822;16.092;2023-02-03T13:47:44;7.25;;;4.35;;
66585;SDS011;53444;45.822;16.092;2023-02-03T13:50:16;5.90;;;2.85;;
66585;SDS011;53444;45.822;16.092;2023-02-03T13:52:51;8.32;;;4.40;;
66585;SDS011;53444;45.822;16.092;2023-02-03T13:55:25;7.80;;;3.85;;
66585;SDS011;53444;45.822;16.092;2023-02-03T13:57:55;10.75;;;4.72;;
66585;SDS011;53444;45.822;16.092;2023-02-03T14:03:39;9.55;;;3.83;;
66585;SDS011;53444;45.822;16.092;2023-02-03T14:06:09;11.10;;;5.10;;
66585;SDS011;53444;45.822;16.092;2023-02-03T14:09:33;12.63;;;5.30;;
66585;SDS011;53444;45.822;16.092;2023-02-03T14:12:16;10.23;;;5.22;;
66585;SDS011;53444;45.822;16.092;2023-02-03T14:14:56;9.85;;;5.55;;
66585;SDS011;53444;45.822;16.092;2023-02-03T14:20:50;9.70;;;5.47;;
66585;SDS011;53444;45.822;16.092;2023-02-03T14:23:25;22.20;;;9.13;;
66585;SDS011;53444;45.822;16.092;2023-02-03T14:25:55;36.63;;;13.35;;
66585;SDS011;53444;45.822;16.092;2023-02-03T14:28:26;30.10;;;13.55;;
66585;SDS011;53444;45.822;16.092;2023-02-03T14:31:06;18.55;;;9.82;;
66585;SDS011;53444;45.822;16.092;2023-02-03T14:33:49;11.90;;;5.43;;
66585;SDS011;53444;45.822;16.092;2023-02-03T14:36:29;10.90;;;4.97;;
66585;SDS011;53444;45.822;16.092;2023-02-03T14:39:03;7.63;;;4.07;;
66585;SDS011;53444;45.822;16.092;2023-02-03T14:41:47;9.40;;;4.70;;
66585;SDS011;53444;45.822;16.092;2023-02-03T14:44:25;11.18;;;5.47;;
66585;SDS011;53444;45.822;16.092;2023-02-03T14:47:01;13.00;;;5.28;;
66585;SDS011;53444;45.822;16.092;2023-02-03T14:49:39;10.32;;;4.82;;
66585;SDS011;53444;45.822;16.092;2023-02-03T14:52:26;10.32;;;5.30;;
66585;SDS011;53444;45.822;16.092;2023-02-03T14:55:19;8.65;;;4.63;;
66585;SDS011;53444;45.822;16.092;2023-02-03T14:57:59;12.02;;;5.72;;
66585;SDS011;53444;45.822;16.092;2023-02-03T15:00:31;10.63;;;5.65;;
66585;SDS011;53444;45.822;16.092;2023-02-03T15:03:15;8.95;;;5.22;;